Change the Weather History Date:

Monday, December 10, 2012

  Actual Average Record
Temperature  
Mean Temperature 43 °F -  
Max Temperature 53 °F 48 °F 66 °F (1996)
Min Temperature 33 °F 34 °F 15 °F (2005)
Degree Days  
Heating Degree Days 22    
Moisture  
Dew Point 27 °F    
Average Humidity 61    
Maximum Humidity 76    
Minimum Humidity 52    
Precipitation  
Precipitation 0.00 in - - ()
Sea Level Pressure  
Sea Level Pressure 29.94 in    
Wind  
Wind Speed 12 mph (NNW)    
Max Wind Speed 16 mph    
Max Gust Speed 25 mph    
Visibility 10 miles    
Events      
Averages and records for this station are not official NWS values.
T = Trace of Precipitation, MM = Missing Value Source: NWS Daily Summary

Daily Weather History Graph

Daily Weather History Graph

Search for Another Location

Airport or City:

Trip Planner

Search our weather history database for the weather conditions in past years. The results will help you decide how hot, cold, wet, or windy it might be!

Date:

Astronomy

Dec. 10, 2012 Rise Set
Actual Time 6:57 AM CST 4:43 PM CST
Civil Twilight 6:29 AM CST 5:12 PM CST
Nautical Twilight 5:57 AM CST 5:44 PM CST
Astronomical Twilight 5:26 AM CST 6:15 PM CST
Moon 3:44 AM CST (12/10) 2:30 PM CST (12/10)
Length of Visible Light 10h 42m
Length of Day
9h 45m
Waning Crescent, 10% of the Moon is Illuminated
Dec 10
Waning Crescent
Dec 13
New
Dec 19
First Quarter
Dec 28
Full
Jan 4
Last Quarter

Hourly Weather History & Observations

Time (CST) Temp. Windchill Dew Point Humidity Pressure Visibility Wind Dir Wind Speed Gust Speed Precip Events Conditions
12:15 AM 53.6 °F - 44.6 °F 72% 29.83 in 10.0 mi North 10.4 mph 17.3 mph N/A   Overcast
12:36 AM 51.8 °F - 44.6 °F 76% 29.83 in 10.0 mi North 16.1 mph 20.7 mph N/A   Overcast
12:55 AM 51.8 °F - 42.8 °F 71% 29.82 in 10.0 mi North 10.4 mph 18.4 mph N/A   Overcast
1:15 AM 51.8 °F - 42.8 °F 71% 29.82 in 10.0 mi North 16.1 mph - N/A   Overcast
1:55 AM 48.2 °F - 41.0 °F 76% 29.84 in 9.0 mi NNW 15.0 mph - N/A   Overcast
2:15 AM 48.2 °F - 39.2 °F 71% 29.84 in 8.0 mi North 15.0 mph 21.9 mph N/A   Overcast
2:56 AM 46.4 °F 40.7 °F 39.2 °F 76% 29.84 in 10.0 mi NNW 12.7 mph - N/A   Overcast
3:15 AM 46.4 °F 40.1 °F 37.4 °F 71% 29.84 in 10.0 mi North 15.0 mph 19.6 mph N/A   Overcast
3:35 AM 46.4 °F 41.1 °F 37.4 °F 71% 29.84 in 10.0 mi NNW 11.5 mph 17.3 mph N/A   Overcast
4:15 AM 46.4 °F 41.9 °F 37.4 °F 71% 29.84 in 10.0 mi NNW 9.2 mph - N/A   Overcast
4:35 AM 46.4 °F 40.4 °F 35.6 °F 66% 29.84 in 10.0 mi North 13.8 mph - N/A   Overcast
4:55 AM 46.4 °F 40.7 °F 33.8 °F 62% 29.84 in 10.0 mi North 12.7 mph - N/A   Overcast
5:15 AM 44.6 °F 39.2 °F 33.8 °F 66% 29.85 in 10.0 mi North 10.4 mph - N/A   Overcast
5:35 AM 44.6 °F 39.2 °F 33.8 °F 66% 29.86 in 10.0 mi North 10.4 mph - N/A   Overcast
6:15 AM 44.6 °F 38.8 °F 33.8 °F 66% 29.84 in 10.0 mi North 11.5 mph - N/A   Overcast
6:35 AM 44.6 °F 40.2 °F 33.8 °F 66% 29.85 in 10.0 mi North 8.1 mph 16.1 mph N/A   Overcast
7:15 AM 42.8 °F 37.5 °F 32.0 °F 66% 29.87 in 10.0 mi NNW 9.2 mph 19.6 mph N/A   Overcast
7:35 AM 42.8 °F 37.0 °F 30.2 °F 61% 29.88 in 10.0 mi NW 10.4 mph 17.3 mph N/A   Overcast
7:55 AM 41.0 °F 33.5 °F 30.2 °F 65% 29.89 in 10.0 mi NNW 13.8 mph 18.4 mph N/A   Overcast
8:16 AM 39.2 °F 30.5 °F 28.4 °F 65% 29.91 in 10.0 mi NW 16.1 mph 21.9 mph N/A   Overcast
8:35 AM 37.4 °F 28.2 °F 26.6 °F 65% 29.91 in 10.0 mi NW 16.1 mph 25.3 mph N/A   Overcast
8:55 AM 37.4 °F 28.9 °F 24.8 °F 60% 29.93 in 10.0 mi NW 13.8 mph 23.0 mph N/A   Overcast
9:15 AM 35.6 °F 25.9 °F 24.8 °F 65% 29.94 in 10.0 mi NW 16.1 mph 21.9 mph N/A   Overcast
9:35 AM 35.6 °F 26.2 °F 24.8 °F 65% 29.94 in 10.0 mi NNW 15.0 mph - N/A   Overcast
9:55 AM 35.6 °F 28.0 °F 24.8 °F 65% 29.94 in 10.0 mi NNW 10.4 mph - N/A   Overcast
10:35 AM 35.6 °F 27.1 °F 24.8 °F 65% 29.94 in 10.0 mi NNW 12.7 mph - N/A   Overcast
10:55 AM 35.6 °F 27.1 °F 23.0 °F 60% 29.94 in 10.0 mi NNW 12.7 mph 18.4 mph N/A   Overcast
11:15 AM 35.6 °F 26.6 °F 23.0 °F 60% 29.95 in 10.0 mi NW 13.8 mph 20.7 mph N/A   Overcast
11:55 AM 35.6 °F 27.1 °F 23.0 °F 60% 29.94 in 10.0 mi NNW 12.7 mph 18.4 mph N/A   Overcast
12:15 PM 37.4 °F 28.9 °F 24.8 °F 60% 29.94 in 10.0 mi NNW 13.8 mph - N/A   Mostly Cloudy
12:36 PM 37.4 °F 28.9 °F 24.8 °F 60% 29.93 in 10.0 mi NW 13.8 mph 19.6 mph N/A   Mostly Cloudy
12:55 PM 37.4 °F 30.3 °F 24.8 °F 60% 29.92 in 10.0 mi NW 10.4 mph - N/A   Overcast
1:15 PM 37.4 °F 29.8 °F 23.0 °F 56% 29.92 in 10.0 mi NW 11.5 mph 16.1 mph N/A   Overcast
1:55 PM 35.6 °F 29.2 °F 23.0 °F 60% 29.92 in 10.0 mi NW 8.1 mph - N/A   Overcast
2:15 PM 35.6 °F 27.5 °F 21.2 °F 56% 29.93 in 10.0 mi NW 11.5 mph - N/A   Overcast
2:35 PM 35.6 °F 27.5 °F 21.2 °F 56% 29.93 in 10.0 mi NW 11.5 mph - N/A   Overcast
2:56 PM 35.6 °F 28.0 °F 21.2 °F 56% 29.95 in 10.0 mi NW 10.4 mph - N/A   Overcast
3:15 PM 35.6 °F 28.6 °F 21.2 °F 56% 29.96 in 10.0 mi NW 9.2 mph - N/A   Overcast
3:35 PM 33.8 °F 26.4 °F 21.2 °F 60% 29.97 in 10.0 mi NNW 9.2 mph - N/A   Overcast
4:15 PM 33.8 °F 26.4 °F 19.4 °F 56% 29.99 in 10.0 mi NW 9.2 mph 17.3 mph N/A   Overcast
4:35 PM 33.8 °F 27.0 °F 19.4 °F 56% 29.99 in 10.0 mi NNW 8.1 mph - N/A   Overcast
4:55 PM 33.8 °F 27.0 °F 19.4 °F 56% 30.00 in 10.0 mi NW 8.1 mph - N/A   Overcast
5:15 PM 33.8 °F 27.0 °F 19.4 °F 56% 30.01 in 10.0 mi NNW 8.1 mph 16.1 mph N/A   Overcast
5:35 PM 33.8 °F 25.8 °F 19.4 °F 56% 30.02 in 10.0 mi NNW 10.4 mph 16.1 mph N/A   Overcast
5:55 PM 33.8 °F 25.8 °F 19.4 °F 56% 30.02 in 10.0 mi NNW 10.4 mph 16.1 mph N/A   Overcast
6:15 PM 33.8 °F 27.7 °F 19.4 °F 56% 30.03 in 10.0 mi NNW 6.9 mph - N/A   Overcast
6:36 PM 33.8 °F 26.4 °F 19.4 °F 56% 30.03 in 10.0 mi North 9.2 mph - N/A   Overcast
6:55 PM 33.8 °F 25.3 °F 19.4 °F 56% 30.04 in 10.0 mi North 11.5 mph - N/A   Overcast
7:15 PM 33.8 °F 26.4 °F 19.4 °F 56% 30.05 in 10.0 mi North 9.2 mph 18.4 mph N/A   Overcast
7:55 PM 35.6 °F 28.0 °F 19.4 °F 52% 30.06 in 10.0 mi NNW 10.4 mph - N/A   Overcast
8:15 PM 35.6 °F 28.6 °F 19.4 °F 52% 30.06 in 10.0 mi North 9.2 mph - N/A   Overcast
8:56 PM 33.8 °F 27.0 °F 19.4 °F 56% 30.07 in 10.0 mi North 8.1 mph - N/A   Overcast
9:15 PM 33.8 °F 27.0 °F 19.4 °F 56% 30.07 in 10.0 mi North 8.1 mph - N/A   Overcast
9:35 PM 35.6 °F 28.6 °F 19.4 °F 52% 30.06 in 10.0 mi NNE 9.2 mph - N/A   Overcast
10:15 PM 33.8 °F 27.0 °F 19.4 °F 56% 30.08 in 10.0 mi NNW 8.1 mph - N/A   Overcast
10:35 PM 33.8 °F 25.3 °F 19.4 °F 56% 30.09 in 10.0 mi North 11.5 mph - N/A   Overcast
10:55 PM 33.8 °F 25.8 °F 19.4 °F 56% 30.09 in 10.0 mi NNW 10.4 mph - N/A   Overcast
11:16 PM 33.8 °F 26.4 °F 19.4 °F 56% 30.10 in 10.0 mi NNW 9.2 mph - N/A   Overcast
11:55 PM 33.8 °F 27.0 °F 19.4 °F 56% 30.10 in 10.0 mi NNW 8.1 mph - N/A   Overcast